Detall de PIREP

Printer-friendly versionPDF version

[2013/12/22 12:10:00]
Flight IATA:CT1004
Pilot Number:012
Company ICAO:CAT
Aircraft Type:B752/E
PAX:180
Aircraft Registration:PAX
Departing Airport: LERS
Destination Airport: LEVT
Alternate Airport:LEMD
Online: VATSIM
Route:DIRMU UN725 DGO
Flight Level:F290
No Slew and time accel
No pause
Crash detect
Detect pilot in Cockpit between each 30 and 45 minutes
12:10 Zero fuel Weight: 173782 Lbs, Fuel Weight: 16466 Lbs
12:10 VATSIM:LERS 221200Z 00000KT CAVOK 15/03 Q1030
12:10 VATSIM:LEVT 221200Z 22009KT 190V250 9999 SCT060 09/01 Q1029
12:10 VOICE CATALONIAN / X-MAS CHARTER
12:13 Parking Brakes off
12:18 Take-off
12:18 Take off Weight: 189415 Lbs
12:18 Wind: 000º @ 000 Knots Heading: 249º
12:18 POS N41º 08´ 50´´ E001º 10´ 01´´
12:18 Gear Up: 184 Knots
12:18 Flaps:2 at 184 Knots
12:18 Flaps:1 at 195 Knots
12:18 Flaps:0 at 200 Knots
12:25 TOC
12:25 Fuel Weight: 12820 Lb
12:33 Wind:288º@029 Knots Heading: 288º Ground Speed: 419 Knots Altitude 29494 ft
12:41 TOD
12:41 Fuel Weight: 10609 Lb
12:48 Wind:262º@033 Knots Heading: 283º Ground Speed: 338 Knots Altitude 18343 ft
13:01 Flaps:1 at 196 Knots
13:02 Flaps:2 at 187 Knots
13:03 Wind:222º@012 Knots Heading: 226º Ground Speed: 173 Knots Altitude 5196 ft
13:03 Flaps:3 at 160 Knots
13:03 Flaps:4 at 160 Knots
13:04 Flaps:5 at 149 Knots
13:04 Gear Down: 148 Knots
13:04 Flaps:6 at 140 Knots
13:07 TouchDown:Rate -159 ft/min Speed: 140 Knots
13:07 VATSIM:LEVT 221230Z 23013KT 190V250 9999 SCT060 09/02 Q1028
13:07 Land
13:07 Wind:216º@013 Knots
13:07 Heading: 215º
13:07 Flight Duration: 00:49
13:07 Landing Weight: 182295 Lbs
13:07 POS N42º 53´ 07´´ W002º 43´ 19´´
13:10 Parking brakes on
13:10 Block to Block Duration: 00:57
13:10 Final Fuel: 8344 Lbls
13:10 Spent Fuel: 8121 Lbls
13:10 Flight Length: 268 NM
13:10 TOD Land Length: 117 NM

Exportar CSV

Powered by Drupal - Modified by Danger4k